Time;durP1;ratioP1;P1;durP2;ratioP2;P2;SDS_P1;SDS_P2;PMS_P1;PMS_P2;Temp;Humidity;BMP_temperature;BMP_pressure;BME280_temperature;BME280_humidity;BME280_pressure;Samples;Min_cycle;Max_cycle;Signal;HPM_P1;HPM_P2
2022/02/20 00:00:38;;;;;;;;;;;1.50;63.70;;;;;;5014293;28;20026;-78
2022/02/20 00:03:04;;;;;;;9.43;2.33;;;1.50;64.90;;;;;;5013888;28;19920;-78
2022/02/20 00:05:30;;;;;;;11.45;4.38;;;1.50;64.40;;;;;;5013395;28;20029;-78
2022/02/20 00:07:56;;;;;;;;;;;1.50;65.60;;;;;;5014141;28;20026;-78
2022/02/20 00:10:22;;;;;;;28.50;9.40;;;1.50;67.10;;;;;;5014126;28;19910;-78
2022/02/20 00:12:47;;;;;;;22.92;8.02;;;1.40;67.50;;;;;;5013817;28;20022;-77
2022/02/20 00:15:13;;;;;;;;;;;1.40;68.10;;;;;;5013866;28;20053;-78
2022/02/20 00:17:39;;;;;;;37.17;13.43;;;1.40;70.10;;;;;;5011505;28;19921;-78
2022/02/20 00:20:05;;;;;;;23.70;8.05;;;1.20;70.40;;;;;;5002000;28;20046;-78
2022/02/20 00:22:31;;;;;;;16.30;6.25;;;1.30;71.40;;;;;;5004074;28;20039;-76
2022/02/20 00:24:57;;;;;;;;;;;1.30;69.00;;;;;;5005166;28;20022;-79
2022/02/20 00:27:24;;;;;;;18.10;5.07;;;1.40;70.20;;;;;;5008542;28;19933;-78
2022/02/20 00:29:50;;;;;;;19.60;5.20;;;1.40;70.60;;;;;;5011028;28;20044;-77
2022/02/20 00:32:15;;;;;;;;;;;1.30;71.70;;;;;;5012364;28;20041;-79
2022/02/20 00:34:41;;;;;;;12.05;4.55;;;1.30;72.40;;;;;;5009869;28;19909;-78
2022/02/20 00:37:08;;;;;;;11.18;3.92;;;1.30;71.70;;;;;;5007937;28;20030;-78
2022/02/20 00:39:34;;;;;;;12.55;5.15;;;1.40;72.30;;;;;;5012759;28;20045;-79
2022/02/20 00:42:00;;;;;;;11.55;3.90;;;1.30;72.40;;;;;;5011885;28;20097;-78
2022/02/20 00:44:26;;;;;;;22.30;7.15;;;1.30;71.60;;;;;;5009488;28;20499;-78
2022/02/20 00:46:52;;;;;;;;;;;1.30;71.90;;;;;;5010760;28;20034;-79
2022/02/20 00:49:18;;;;;;;34.47;12.75;;;1.30;74.00;;;;;;5008239;28;19906;-77
2022/02/20 00:51:44;;;;;;;26.80;11.10;;;1.30;75.10;;;;;;5009180;28;20030;-79
2022/02/20 00:54:09;;;;;;;24.67;9.35;;;1.30;74.40;;;;;;5013005;28;20080;-78
2022/02/20 00:56:36;;;;;;;21.33;8.90;;;1.30;74.80;;;;;;5011236;28;20025;-78
2022/02/20 00:59:03;;;;;;;25.92;7.82;;;1.30;74.30;;;;;;5011530;28;20030;-78
2022/02/20 01:01:29;;;;;;;13.30;5.07;;;1.30;74.30;;;;;;5013340;28;20069;-79
2022/02/20 01:03:55;;;;;;;;;;;1.30;73.40;;;;;;5014609;28;20038;-79
2022/02/20 01:06:21;;;;;;;13.45;4.18;;;1.40;73.10;;;;;;5012387;28;19928;-78
2022/02/20 01:08:47;;;;;;;10.98;3.95;;;1.50;72.50;;;;;;5013147;28;20521;-79
2022/02/20 01:11:13;;;;;;;13.02;4.13;;;1.50;71.50;;;;;;5015642;28;20030;-80
2022/02/20 01:13:39;;;;;;;;;;;1.50;73.00;;;;;;5016486;28;20023;-79
2022/02/20 01:16:05;;;;;;;9.23;3.60;;;1.40;74.30;;;;;;5014794;28;19993;-80
2022/02/20 01:18:31;;;;;;;8.52;3.17;;;1.40;75.10;;;;;;5014753;28;20038;-79
2022/02/20 01:20:57;;;;;;;;;;;1.30;77.10;;;;;;5015588;28;20053;-79
2022/02/20 01:23:23;;;;;;;11.90;3.65;;;1.30;78.30;;;;;;5015152;28;19913;-79
2022/02/20 01:25:49;;;;;;;;;;;1.30;78.90;;;;;;5014981;28;20014;-79
2022/02/20 01:28:15;;;;;;;11.43;3.00;;;1.20;80.00;;;;;;5016638;28;19917;-78
2022/02/20 01:30:41;;;;;;;13.25;3.33;;;1.10;80.40;;;;;;5015301;28;20023;-79
2022/02/20 01:33:07;;;;;;;;;;;1.10;79.80;;;;;;5015447;28;20054;-78
2022/02/20 01:35:32;;;;;;;9.38;3.28;;;1.10;79.70;;;;;;5013933;28;19910;-79
2022/02/20 01:37:58;;;;;;;8.73;2.95;;;1.10;81.50;;;;;;5014394;28;20078;-78
2022/02/20 01:40:27;;;;;;;;;;;1.10;82.10;;;;;;5013093;28;20085;-79
2022/02/20 01:42:53;;;;;;;4.93;1.65;;;1.00;81.70;;;;;;5014915;28;19936;-78
2022/02/20 01:45:19;;;;;;;;;;;1.00;81.80;;;;;;5014374;28;20026;-78
2022/02/20 01:47:45;;;;;;;8.20;1.67;;;1.00;82.90;;;;;;5014567;28;19922;-80
2022/02/20 01:50:12;;;;;;;8.20;1.30;;;1.00;82.80;;;;;;5015127;28;20089;-80
2022/02/20 01:52:38;;;;;;;6.10;1.48;;;1.00;81.60;;;;;;5016428;28;20011;-79
2022/02/20 01:55:08;;;;;;;7.70;1.83;;;1.00;81.20;;;;;;5016068;28;20003;-79
2022/02/20 01:57:38;;;;;;;15.85;2.78;;;0.90;80.50;;;;;;5010909;28;20060;-77
2022/02/20 02:00:10;;;;;;;8.57;1.55;;;0.90;82.50;;;;;;4991974;28;20058;-78
2022/02/20 02:02:36;;;;;;;7.28;1.10;;;0.90;81.90;;;;;;4991267;28;20566;-77
2022/02/20 02:05:02;;;;;;;;;;;0.90;83.70;;;;;;4996239;28;20057;-77
2022/02/20 02:07:28;;;;;;;8.43;2.00;;;0.90;87.20;;;;;;5008678;28;19913;-79
2022/02/20 02:09:54;;;;;;;10.65;2.42;;;0.80;86.40;;;;;;5015023;28;20031;-79
2022/02/20 02:12:20;;;;;;;;;;;0.90;86.30;;;;;;5014205;28;20026;-79
2022/02/20 02:15:02;;;;;;;3.70;0.85;;;0.90;87.70;;;;;;5005492;28;19913;-78
2022/02/20 02:17:28;;;;;;;5.90;1.20;;;0.90;86.80;;;;;;4998187;28;20037;-78
2022/02/20 02:19:54;;;;;;;6.85;1.38;;;0.90;87.30;;;;;;4999807;28;20062;-78
2022/02/20 02:22:28;;;;;;;11.05;2.30;;;0.90;84.90;;;;;;5000320;28;20073;-79
2022/02/20 02:24:56;;;;;;;7.07;1.35;;;0.90;82.60;;;;;;5003197;28;20077;-79
2022/02/20 02:27:22;;;;;;;6.40;1.83;;;0.90;84.20;;;;;;4999188;28;20030;-78
2022/02/20 02:29:49;;;;;;;7.47;2.75;;;0.90;86.60;;;;;;5001143;28;20030;-78
2022/02/20 02:32:15;;;;;;;10.80;1.75;;;0.90;84.50;;;;;;5002160;28;20034;-78
2022/02/20 02:34:46;;;;;;;6.45;0.98;;;0.90;85.10;;;;;;4997556;28;20026;-77
2022/02/20 02:37:12;;;;;;;3.88;0.93;;;0.90;84.60;;;;;;5005053;28;20094;-79
2022/02/20 02:39:39;;;;;;;5.78;0.88;;;0.90;84.10;;;;;;5012341;28;20092;-79
2022/02/20 02:42:06;;;;;;;5.38;1.00;;;0.90;84.30;;;;;;5010850;28;20526;-79
2022/02/20 02:44:32;;;;;;;6.07;0.90;;;0.90;84.00;;;;;;5011525;28;20038;-79
2022/02/20 02:46:58;;;;;;;;;;;0.90;84.70;;;;;;5010494;28;20161;-79
2022/02/20 02:49:23;;;;;;;5.93;1.35;;;0.90;85.20;;;;;;5009240;28;19913;-79
2022/02/20 02:51:49;;;;;;;3.50;1.10;;;0.80;85.10;;;;;;5002499;28;20034;-78
2022/02/20 02:54:17;;;;;;;4.45;1.52;;;0.80;86.00;;;;;;4996365;28;20060;-78
2022/02/20 02:56:47;;;;;;;4.00;1.00;;;0.80;85.10;;;;;;4995428;28;20080;-78
2022/02/20 02:59:13;;;;;;;5.43;1.42;;;0.80;86.10;;;;;;5004847;28;20054;-79
2022/02/20 03:01:39;;;;;;;7.47;1.90;;;0.80;85.80;;;;;;5005634;28;20034;-79
2022/02/20 03:04:05;;;;;;;5.35;1.13;;;0.90;81.70;;;;;;5011111;28;20018;-80
2022/02/20 03:06:31;;;;;;;;;;;0.90;79.60;;;;;;5013313;28;20026;-79
2022/02/20 03:08:57;;;;;;;18.75;5.90;;;1.00;81.00;;;;;;5011834;28;19905;-80
2022/02/20 03:11:23;;;;;;;15.15;4.30;;;0.90;81.90;;;;;;5010803;28;20495;-79
2022/02/20 03:13:49;;;;;;;16.92;4.88;;;0.90;82.80;;;;;;5011020;28;20030;-79
2022/02/20 03:16:14;;;;;;;;;;;0.90;84.20;;;;;;5011902;28;20105;-79
2022/02/20 03:18:40;;;;;;;10.95;2.85;;;0.90;85.00;;;;;;5009155;28;19906;-78
2022/02/20 03:21:06;;;;;;;;;;;0.90;84.20;;;;;;5009158;28;20065;-79
2022/02/20 03:23:33;;;;;;;8.13;2.10;;;0.90;85.10;;;;;;5009097;28;19957;-79
2022/02/20 03:25:59;;;;;;;9.77;2.97;;;0.90;84.20;;;;;;5008523;28;20045;-79
2022/02/20 03:28:24;;;;;;;;;;;0.90;85.20;;;;;;5007624;28;20026;-78
2022/02/20 03:30:50;;;;;;;10.10;2.67;;;0.90;86.40;;;;;;5006615;28;20323;-78
2022/02/20 03:33:16;;;;;;;;;;;0.80;87.00;;;;;;5006601;28;20030;-79
2022/02/20 03:35:42;;;;;;;8.10;2.67;;;0.80;88.00;;;;;;5006593;28;19969;-79
2022/02/20 03:38:08;;;;;;;3.78;0.85;;;0.90;89.40;;;;;;5007911;28;20026;-79
2022/02/20 03:40:34;;;;;;;;;;;0.80;86.70;;;;;;5008605;28;20022;-79
2022/02/20 03:43:00;;;;;;;7.78;1.85;;;0.80;87.50;;;;;;5007141;28;19914;-78
2022/02/20 03:45:26;;;;;;;;;;;0.80;88.20;;;;;;5009056;28;20030;-79
2022/02/20 03:47:52;;;;;;;6.13;1.00;;;0.80;88.00;;;;;;5006811;28;19933;-77
2022/02/20 03:50:19;;;;;;;;;;;0.80;89.80;;;;;;5007046;28;20053;-79
2022/02/20 03:52:46;;;;;;;7.18;1.73;;;0.80;90.20;;;;;;5010978;28;19894;-80
2022/02/20 03:55:12;;;;;;;16.15;4.20;;;0.80;90.20;;;;;;5012849;28;20029;-79
2022/02/20 03:57:39;;;;;;;16.75;3.75;;;0.80;90.30;;;;;;5013801;28;20102;-80
2022/02/20 04:00:10;;;;;;;11.77;3.35;;;0.70;90.60;;;;;;5014236;28;20031;-80
2022/02/20 04:02:37;;;;;;;13.20;2.95;;;0.70;90.50;;;;;;5013373;28;20058;-80
2022/02/20 04:05:05;;;;;;;7.88;2.22;;;0.80;88.50;;;;;;5013809;28;20038;-81
2022/02/20 04:07:31;;;;;;;11.32;2.83;;;0.80;86.40;;;;;;5012394;28;20024;-80
2022/02/20 04:09:57;;;;;;;;;;;0.90;88.10;;;;;;5014101;28;20099;-80
2022/02/20 04:12:22;;;;;;;20.52;6.50;;;0.90;89.80;;;;;;5013960;28;19909;-79
2022/02/20 04:14:48;;;;;;;20.15;5.68;;;0.80;90.30;;;;;;5013128;28;20030;-81
2022/02/20 04:17:14;;;;;;;13.25;5.28;;;0.80;90.60;;;;;;5014448;28;20046;-81
2022/02/20 04:19:39;;;;;;;;;;;0.80;91.30;;;;;;5015216;28;20031;-80
2022/02/20 04:22:05;;;;;;;14.15;5.35;;;0.70;92.30;;;;;;5013049;28;19952;-80
2022/02/20 04:24:30;;;;;;;;;;;0.70;92.70;;;;;;5014981;28;20026;-79
2022/02/20 04:26:56;;;;;;;18.98;6.65;;;0.60;93.70;;;;;;5014026;28;19910;-81
2022/02/20 04:29:22;;;;;;;17.70;6.38;;;0.50;94.30;;;;;;5001829;28;20030;-78
2022/02/20 04:31:47;;;;;;;;;;;0.50;95.10;;;;;;4995151;28;20455;-78
2022/02/20 04:34:13;;;;;;;14.80;5.68;;;0.40;95.10;;;;;;4993790;28;19949;-77
2022/02/20 04:36:38;;;;;;;;;;;0.30;95.10;;;;;;4996849;28;20076;-78
2022/02/20 04:39:06;;;;;;;27.10;9.60;;;0.40;95.50;;;;;;5000047;28;19909;-78
2022/02/20 04:41:32;;;;;;;26.20;10.82;;;0.30;95.40;;;;;;5000508;28;20512;-78
2022/02/20 04:43:58;;;;;;;22.13;10.45;;;0.30;95.00;;;;;;5004365;28;20034;-79
2022/02/20 04:46:24;;;;;;;;;;;0.40;95.00;;;;;;5008712;28;20029;-79
2022/02/20 04:48:51;;;;;;;10.80;5.00;;;0.40;94.80;;;;;;5001887;28;19933;-78
2022/02/20 04:51:17;;;;;;;19.50;5.78;;;0.30;94.80;;;;;;5003378;28;20084;-78
2022/02/20 04:53:42;;;;;;;;;;;0.30;95.30;;;;;;5003955;28;20411;-78
2022/02/20 04:56:08;;;;;;;13.15;4.78;;;0.30;95.80;;;;;;5004762;28;19906;-79
2022/02/20 04:58:33;;;;;;;;;;;0.20;95.70;;;;;;5005752;28;20097;-79
2022/02/20 05:00:59;;;;;;;19.38;8.30;;;0.20;96.50;;;;;;5012208;28;19905;-80
2022/02/20 05:03:25;;;;;;;;;;;0.10;97.20;;;;;;5017201;28;20098;-80
2022/02/20 05:05:51;;;;;;;17.77;7.50;;;0.00;98.10;;;;;;5016223;28;19906;-79
2022/02/20 05:08:16;;;;;;;11.82;5.53;;;-0.10;98.60;;;;;;5014609;28;20019;-79
2022/02/20 05:10:42;;;;;;;18.98;5.25;;;-0.10;99.20;;;;;;5012672;28;20042;-79
2022/02/20 05:13:07;;;;;;;12.23;4.95;;;-0.20;99.60;;;;;;5014707;28;20024;-81
2022/02/20 05:15:33;;;;;;;14.55;5.32;;;-0.10;99.90;;;;;;5014526;28;20042;-79
2022/02/20 05:17:59;;;;;;;;;;;-0.30;99.90;;;;;;5015146;28;20022;-80
2022/02/20 05:20:25;;;;;;;17.90;5.63;;;-0.20;99.80;;;;;;5013392;28;19941;-79
2022/02/20 05:22:50;;;;;;;;;;;-0.30;99.90;;;;;;5014865;28;20042;-80
2022/02/20 05:25:17;;;;;;;23.92;10.15;;;-0.30;99.90;;;;;;5013580;28;19910;-79
2022/02/20 05:27:43;;;;;;;33.80;12.02;;;-0.30;99.90;;;;;;5012984;28;20109;-79
2022/02/20 05:30:10;;;;;;;33.22;11.70;;;-0.40;99.90;;;;;;5013057;28;20053;-80
2022/02/20 05:32:36;;;;;;;29.30;10.88;;;-0.40;99.90;;;;;;5015226;28;20019;-79
2022/02/20 05:35:02;;;;;;;;;;;-0.40;99.90;;;;;;5015252;28;20026;-79
2022/02/20 05:37:27;;;;;;;26.38;10.35;;;-0.30;99.90;;;;;;5014118;28;19913;-79
2022/02/20 05:39:53;;;;;;;20.15;8.10;;;-0.30;99.90;;;;;;5013217;28;20113;-79
2022/02/20 05:42:18;;;;;;;;;;;-0.30;99.60;;;;;;5011019;28;20046;-80
2022/02/20 05:44:44;;;;;;;21.50;9.15;;;-0.30;99.40;;;;;;5013513;28;19929;-80
2022/02/20 05:47:10;;;;;;;;;;;-0.30;99.70;;;;;;5016119;28;20030;-80
2022/02/20 05:49:36;;;;;;;17.52;5.80;;;-0.30;99.90;;;;;;5015405;28;19894;-79
2022/02/20 05:52:02;;;;;;;55.92;16.65;;;-0.30;99.90;;;;;;5014918;28;20097;-79
2022/02/20 05:54:28;;;;;;;66.40;19.40;;;-0.30;99.90;;;;;;5006415;28;20038;-79
2022/02/20 05:56:53;;;;;;;;;;;-0.20;99.90;;;;;;5006037;28;20065;-78
2022/02/20 05:59:19;;;;;;;47.53;17.30;;;-0.30;99.90;;;;;;5006541;28;20412;-78
2022/02/20 06:01:45;;;;;;;;;;;-0.30;99.90;;;;;;5012027;28;20030;-79
2022/02/20 06:04:10;;;;;;;30.85;10.65;;;-0.30;99.90;;;;;;5014377;28;19908;-80
2022/02/20 06:06:36;;;;;;;;;;;-0.20;99.90;;;;;;5017969;28;20022;-79
2022/02/20 06:09:02;;;;;;;46.50;16.98;;;-0.20;99.90;;;;;;5017409;28;19902;-81
2022/02/20 06:11:30;;;;;;;41.20;15.23;;;-0.10;99.90;;;;;;5017783;28;20036;-79
2022/02/20 06:13:56;;;;;;;33.38;14.70;;;-0.10;99.90;;;;;;5015328;28;20026;-80
2022/02/20 06:16:22;;;;;;;45.13;18.00;;;0.10;99.90;;;;;;5013742;28;20121;-79
2022/02/20 06:18:47;;;;;;;;;;;0.10;99.90;;;;;;5014223;28;20041;-80
2022/02/20 06:21:14;;;;;;;42.17;16.98;;;0.20;99.90;;;;;;5013003;28;19941;-81
2022/02/20 06:23:40;;;;;;;45.33;16.40;;;0.40;99.90;;;;;;5015389;28;20026;-79
2022/02/20 06:26:06;;;;;;;48.45;18.65;;;0.50;99.90;;;;;;5012358;28;20022;-79
2022/02/20 06:28:32;;;;;;;;;;;0.70;99.90;;;;;;5009789;28;20034;-79
2022/02/20 06:30:58;;;;;;;50.88;18.92;;;0.80;99.90;;;;;;5009957;28;19910;-80
2022/02/20 06:33:23;;;;;;;;;;;1.00;99.90;;;;;;5011961;28;20043;-79
2022/02/20 06:35:49;;;;;;;43.05;18.23;;;1.20;99.20;;;;;;5008618;28;19924;-78
2022/02/20 06:38:15;;;;;;;42.33;16.20;;;1.40;98.80;;;;;;5009644;28;20026;-78
2022/02/20 06:40:41;;;;;;;50.88;20.88;;;1.50;98.30;;;;;;5007568;28;20823;-77
2022/02/20 06:43:06;;;;;;;;;;;1.80;96.10;;;;;;5006885;28;20022;-78
2022/02/20 06:45:32;;;;;;;38.58;16.38;;;1.90;95.60;;;;;;5006162;28;19894;-78
2022/02/20 06:47:57;;;;;;;;;;;2.10;95.50;;;;;;5007777;28;20026;-78
2022/02/20 06:50:23;;;;;;;66.50;26.45;;;2.50;93.70;;;;;;5007672;28;19912;-78
2022/02/20 06:52:49;;;;;;;75.60;30.10;;;2.90;92.50;;;;;;5008421;28;20038;-79
2022/02/20 06:55:14;;;;;;;72.60;30.23;;;3.50;86.90;;;;;;5006815;28;20030;-78
2022/02/20 06:57:41;;;;;;;62.35;30.00;;;4.00;81.90;;;;;;5010154;28;20007;-79
2022/02/20 07:00:13;;;;;;;73.50;32.25;;;4.60;76.90;;;;;;5011637;28;20034;-80
2022/02/20 07:02:40;;;;;;;77.15;34.60;;;5.10;72.60;;;;;;5013718;28;20053;-79
2022/02/20 07:05:07;;;;;;;78.72;34.83;;;5.50;69.10;;;;;;5018834;28;20041;-80
2022/02/20 07:07:33;;;;;;;74.10;32.45;;;5.50;68.70;;;;;;5018840;28;20026;-79
2022/02/20 07:10:00;;;;;;;66.65;31.45;;;5.80;69.80;;;;;;5017632;28;20011;-79
2022/02/20 07:12:25;;;;;;;;;;;6.40;67.70;;;;;;5010013;28;20041;-77
2022/02/20 07:14:51;;;;;;;49.53;22.77;;;7.20;62.50;;;;;;5010896;28;20358;-78
2022/02/20 07:17:17;;;;;;;;;;;8.10;60.30;;;;;;5017595;28;20010;-80
2022/02/20 07:19:43;;;;;;;15.80;6.05;;;8.90;56.90;;;;;;5016255;28;19898;-78
2022/02/20 07:22:08;;;;;;;18.60;8.52;;;9.60;54.70;;;;;;5016210;28;20042;-79
2022/02/20 07:24:34;;;;;;;11.85;5.25;;;10.10;53.40;;;;;;5010534;28;20038;-78
2022/02/20 07:27:00;;;;;;;11.77;5.28;;;10.60;52.10;;;;;;5007313;28;20046;-78
2022/02/20 07:29:25;;;;;;;13.20;7.00;;;10.90;50.70;;;;;;5013812;28;20022;-77
2022/02/20 07:31:51;;;;;;;10.10;4.30;;;11.10;51.00;;;;;;5013776;28;20034;-79
2022/02/20 07:34:16;;;;;;;;;;;11.50;50.90;;;;;;5012667;28;20022;-79
2022/02/20 07:36:42;;;;;;;8.63;3.95;;;12.20;48.30;;;;;;5010416;28;19906;-78
2022/02/20 07:39:08;;;;;;;;;;;12.40;49.50;;;;;;5010467;28;20019;-80
2022/02/20 07:41:34;;;;;;;13.90;5.07;;;12.80;47.60;;;;;;4993816;28;19910;-81
2022/02/20 07:44:00;;;;;;;;;;;13.20;46.70;;;;;;4990960;28;20041;-83
2022/02/20 07:46:26;;;;;;;5.88;2.13;;;13.50;46.80;;;;;;4990660;28;19906;-83
2022/02/20 07:48:55;;;;;;;;;;;13.70;46.70;;;;;;5013033;28;20018;-79
2022/02/20 07:51:21;;;;;;;5.38;1.90;;;14.00;46.00;;;;;;5017228;28;19894;-79
2022/02/20 07:53:47;;;;;;;;;;;13.80;46.30;;;;;;5015172;28;20037;-78
2022/02/20 07:56:12;;;;;;;4.97;1.50;;;13.50;46.70;;;;;;5023165;22;19922;-79
2022/02/20 07:58:38;;;;;;;;;;;12.90;47.90;;;;;;4975773;28;20034;-78
2022/02/20 08:01:05;;;;;;;7.30;2.22;;;12.50;49.20;;;;;;4993532;28;19932;-78
2022/02/20 08:03:31;;;;;;;6.38;1.70;;;12.40;50.00;;;;;;4976981;28;20492;-78
2022/02/20 08:05:58;;;;;;;7.80;1.80;;;12.30;50.80;;;;;;4994390;28;20007;-79
2022/02/20 08:08:24;;;;;;;6.60;1.75;;;12.20;50.60;;;;;;4982607;28;20046;-78
2022/02/20 08:10:51;;;;;;;8.00;2.00;;;12.00;51.50;;;;;;4984828;28;20010;-79
2022/02/20 08:13:16;;;;;;;;;;;12.00;52.30;;;;;;4985847;28;20015;-78
2022/02/20 08:15:42;;;;;;;4.72;1.20;;;12.10;52.50;;;;;;5000177;28;19917;-78
2022/02/20 08:18:08;;;;;;;;;;;12.20;51.80;;;;;;5003896;28;20007;-79
2022/02/20 08:20:34;;;;;;;3.65;1.40;;;12.10;52.60;;;;;;5003008;28;19894;-79
2022/02/20 08:23:00;;;;;;;5.05;1.48;;;12.30;52.10;;;;;;5000845;28;20062;-79
2022/02/20 08:25:26;;;;;;;;;;;11.80;53.10;;;;;;4995592;28;20082;-79
2022/02/20 08:27:54;;;;;;;4.78;1.55;;;11.10;53.70;;;;;;4998198;28;19930;-79
2022/02/20 08:30:20;;;;;;;4.07;1.35;;;10.60;56.30;;;;;;5001209;28;20015;-80
2022/02/20 08:32:46;;;;;;;;;;;10.00;57.90;;;;;;4998226;28;20050;-78
2022/02/20 08:35:12;;;;;;;6.38;1.52;;;9.50;60.20;;;;;;4997716;28;19902;-79
2022/02/20 08:37:40;;;;;;;;;;;9.30;62.50;;;;;;4981180;28;20035;-80
2022/02/20 08:40:07;;;;;;;11.77;2.00;;;9.10;65.50;;;;;;4996915;28;20005;-79
2022/02/20 08:42:33;;;;;;;5.10;1.55;;;9.10;65.60;;;;;;4997486;28;20031;-79
2022/02/20 08:44:59;;;;;;;;;;;9.10;66.30;;;;;;4982275;28;20190;-80
2022/02/20 08:47:24;;;;;;;4.28;1.33;;;8.90;67.90;;;;;;4980596;28;19910;-79
2022/02/20 08:49:50;;;;;;;;;;;8.90;69.80;;;;;;4971334;28;20027;-78
2022/02/20 08:52:16;;;;;;;6.78;1.52;;;8.80;70.40;;;;;;4987826;28;19910;-79
2022/02/20 08:54:41;;;;;;;5.47;1.55;;;9.00;70.40;;;;;;4989857;28;20034;-80
2022/02/20 08:57:08;;;;;;;3.90;1.40;;;9.10;68.90;;;;;;4988083;28;20134;-78
2022/02/20 08:59:37;;;;;;;6.35;1.58;;;9.40;68.30;;;;;;4968865;28;20082;-79
2022/02/20 09:02:03;;;;;;;6.72;1.92;;;10.00;65.90;;;;;;4970358;28;20046;-76
2022/02/20 09:04:29;;;;;;;7.47;1.90;;;10.60;62.90;;;;;;4988588;28;20025;-79
2022/02/20 09:06:55;;;;;;;;;;;10.90;59.40;;;;;;4960919;28;20038;-78
2022/02/20 09:09:21;;;;;;;4.45;1.30;;;11.30;57.10;;;;;;4989066;28;19965;-78
2022/02/20 09:11:47;;;;;;;6.15;1.60;;;11.90;54.70;;;;;;4974659;28;20498;-78
2022/02/20 09:14:14;;;;;;;;;;;12.40;52.90;;;;;;4993470;28;20027;-78
2022/02/20 09:16:40;;;;;;;5.43;1.33;;;12.60;53.00;;;;;;4971107;28;20350;-78
2022/02/20 09:19:06;;;;;;;;;;;13.00;53.30;;;;;;4973819;28;20039;-79
2022/02/20 09:21:32;;;;;;;5.43;1.30;;;13.10;52.60;;;;;;4990573;28;20435;-79
2022/02/20 09:23:58;;;;;;;8.05;1.02;;;13.00;53.10;;;;;;4992124;28;20070;-78
2022/02/20 09:26:24;;;;;;;5.35;1.58;;;13.20;53.70;;;;;;4974760;28;20042;-78
2022/02/20 09:28:50;;;;;;;;;;;13.30;53.30;;;;;;4973303;28;20035;-79
2022/02/20 09:31:17;;;;;;;7.55;1.30;;;12.80;53.80;;;;;;4973517;28;19929;-78
2022/02/20 09:33:42;;;;;;;7.07;1.38;;;12.30;55.20;;;;;;4971547;28;20050;-79
2022/02/20 09:36:08;;;;;;;;;;;11.80;57.20;;;;;;4984624;28;20491;-78
2022/02/20 09:38:36;;;;;;;4.72;1.17;;;11.20;60.30;;;;;;4982600;28;19906;-78
2022/02/20 09:41:05;;;;;;;7.60;1.27;;;10.90;64.20;;;;;;4981288;28;20050;-78
2022/02/20 09:43:33;;;;;;;5.45;1.30;;;10.60;68.00;;;;;;4963482;28;20053;-78
2022/02/20 09:45:59;;;;;;;5.63;1.15;;;10.30;71.00;;;;;;4983166;28;20089;-79
2022/02/20 09:48:25;;;;;;;4.97;1.27;;;10.20;73.80;;;;;;4963899;28;20131;-80
2022/02/20 09:50:51;;;;;;;;;;;10.20;76.10;;;;;;4984114;28;20058;-79
2022/02/20 09:53:16;;;;;;;5.05;1.02;;;10.20;79.00;;;;;;4967196;28;20367;-78
2022/02/20 09:55:46;;;;;;;;;;;10.30;79.90;;;;;;4968616;28;20058;-78
2022/02/20 09:58:13;;;;;;;3.53;1.20;;;10.70;79.20;;;;;;4983794;28;19910;-79
2022/02/20 10:00:53;;;;;;;7.22;1.45;;;11.00;75.70;;;;;;4984778;28;20042;-78
2022/02/20 10:03:36;;;;;;;5.60;1.15;;;11.00;75.30;;;;;;4968301;28;20039;-79
2022/02/20 10:06:05;;;;;;;3.50;0.93;;;10.80;77.00;;;;;;4969816;28;20027;-79
2022/02/20 10:08:43;;;;;;;3.55;0.88;;;10.40;82.50;;;;;;4969960;28;20027;-78
2022/02/20 10:11:20;;;;;;;2.35;1.00;;;10.20;87.50;;;;;;4969898;28;20488;-79
2022/02/20 10:13:49;;;;;;;5.47;1.52;;;9.80;91.20;;;;;;4970678;28;20042;-78
2022/02/20 10:16:25;;;;;;;3.40;0.82;;;9.40;94.50;;;;;;4969456;28;20061;-79
2022/02/20 10:18:52;;;;;;;4.30;1.00;;;9.10;96.90;;;;;;4986219;28;20048;-79
2022/02/20 10:21:30;;;;;;;6.13;1.48;;;8.90;99.20;;;;;;4969228;28;20051;-78
2022/02/20 10:24:07;;;;;;;1.90;0.73;;;8.80;99.90;;;;;;4984393;28;20053;-80
2022/02/20 10:26:44;;;;;;;4.50;1.20;;;8.60;99.90;;;;;;4984837;28;20054;-78
2022/02/20 10:29:13;;;;;;;5.93;1.20;;;8.30;99.90;;;;;;4984334;28;20019;-78
2022/02/20 10:31:54;;;;;;;3.55;1.15;;;8.10;99.90;;;;;;4967032;28;20093;-78
2022/02/20 10:34:25;;;;;;;5.47;1.27;;;7.90;99.90;;;;;;4985011;28;20035;-79
2022/02/20 10:36:58;;;;;;;2.42;0.80;;;7.70;99.90;;;;;;4964635;28;20033;-78
2022/02/20 10:39:34;;;;;;;4.35;1.50;;;7.60;99.90;;;;;;4964405;28;20022;-79
2022/02/20 10:42:14;;;;;;;4.88;1.30;;;7.40;99.90;;;;;;4961903;28;20125;-78
2022/02/20 10:45:01;;;;;;;3.65;1.15;;;7.40;99.90;;;;;;4962677;28;20126;-78
2022/02/20 10:47:30;;;;;;;5.38;1.10;;;7.40;99.90;;;;;;4966526;28;20031;-78
2022/02/20 10:50:21;;;;;;;3.75;1.55;;;7.60;99.90;;;;;;4984158;28;20035;-79
2022/02/20 10:52:47;;;;;;;8.68;1.20;;;7.80;99.90;;;;;;4983747;28;20435;-79
2022/02/20 10:55:14;;;;;;;3.75;1.17;;;8.00;99.90;;;;;;4969798;28;20086;-79
2022/02/20 10:57:44;;;;;;;3.83;1.10;;;8.10;99.90;;;;;;4966108;29;20055;-78
2022/02/20 11:00:18;;;;;;;3.20;1.10;;;8.20;99.90;;;;;;4965191;29;20015;-78
2022/02/20 11:02:44;;;;;;;4.30;1.35;;;8.30;99.90;;;;;;4966681;29;20031;-79
2022/02/20 11:05:14;;;;;;;2.58;0.80;;;8.50;99.90;;;;;;4967143;29;20020;-78
2022/02/20 11:07:40;;;;;;;2.53;1.00;;;8.50;99.90;;;;;;4969041;29;20032;-78
2022/02/20 11:10:08;;;;;;;5.10;0.90;;;8.60;99.90;;;;;;4968471;29;20032;-81
2022/02/20 11:12:38;;;;;;;4.38;1.73;;;8.70;99.90;;;;;;4979093;28;20035;-82
2022/02/20 11:15:05;;;;;;;5.85;1.38;;;8.80;99.90;;;;;;4979689;28;20035;-81
2022/02/20 11:17:33;;;;;;;3.00;0.93;;;9.00;99.90;;;;;;4979675;28;20016;-81
2022/02/20 11:20:00;;;;;;;6.68;0.98;;;9.20;99.90;;;;;;4980902;28;20020;-81
2022/02/20 11:22:30;;;;;;;3.88;1.02;;;9.30;99.90;;;;;;4980096;28;20035;-81
2022/02/20 11:25:01;;;;;;;3.03;0.82;;;9.40;99.90;;;;;;4980188;28;20042;-82
2022/02/20 11:27:28;;;;;;;2.97;1.05;;;9.40;99.90;;;;;;4980056;28;20043;-82
2022/02/20 11:29:53;;;;;;;3.97;1.10;;;9.50;99.90;;;;;;4979917;28;20094;-82
2022/02/20 11:32:21;;;;;;;5.38;1.45;;;9.50;99.90;;;;;;4980468;28;20019;-83
2022/02/20 11:34:47;;;;;;;5.90;1.35;;;9.70;99.90;;;;;;4980633;28;20016;-82
2022/02/20 11:37:14;;;;;;;2.67;0.90;;;9.80;99.90;;;;;;4980479;28;20016;-80
2022/02/20 11:40:00;;;;;;;4.63;1.13;;;9.90;99.90;;;;;;4980239;28;20016;-82
2022/02/20 11:42:25;;;;;;;3.20;0.90;;;10.10;98.20;;;;;;4980451;28;20091;-79
2022/02/20 11:44:52;;;;;;;;;;;10.10;97.60;;;;;;4979958;28;20015;-81
2022/02/20 11:47:33;;;;;;;5.25;1.10;;;10.20;96.10;;;;;;4980111;28;19910;-81
2022/02/20 11:50:17;;;;;;;3.83;1.30;;;10.10;95.60;;;;;;4980019;28;20027;-82
2022/02/20 11:52:51;;;;;;;8.57;1.95;;;10.00;96.20;;;;;;4980065;28;20007;-80
2022/02/20 12:27:00;;;;;;;2.33;0.70;;;9.70;96.80;;;;;;5524906;23;20042;-81
2022/02/20 12:29:40;;;;;;;3.17;0.70;;;9.70;95.00;;;;;;4997414;28;20055;-81
2022/02/20 12:32:14;;;;;;;1.83;0.68;;;9.80;91.50;;;;;;4997268;28;20079;-81
2022/02/20 12:34:49;;;;;;;2.78;0.60;;;9.80;89.30;;;;;;4997855;28;20027;-81
2022/02/20 12:37:22;;;;;;;2.55;0.60;;;9.90;87.10;;;;;;4999390;28;20031;-82
2022/02/20 12:40:12;;;;;;;2.70;0.80;;;9.90;85.60;;;;;;4999178;28;20041;-82
2022/02/20 12:42:56;;;;;;;2.22;0.70;;;9.90;85.20;;;;;;4998445;28;20026;-82
2022/02/20 12:45:31;;;;;;;2.55;0.88;;;9.80;83.70;;;;;;4999379;28;20007;-82
2022/02/20 12:47:58;;;;;;;7.32;4.30;;;9.80;84.10;;;;;;4998807;28;20026;-81
2022/02/20 12:50:30;;;;;;;3.20;0.65;;;10.00;83.30;;;;;;4999043;28;20026;-82
2022/02/20 12:52:56;;;;;;;1.65;0.68;;;10.20;83.40;;;;;;4998430;28;20094;-81
2022/02/20 13:55:54;;;;;;;2.70;0.80;;;10.20;75.60;;;;;;5492193;23;20051;-82
2022/02/20 13:58:24;;;;;;;3.17;0.70;;;10.30;73.40;;;;;;5000389;28;20058;-81
2022/02/20 14:00:53;;;;;;;4.20;1.13;;;10.50;72.10;;;;;;5000080;28;20022;-81
2022/02/20 14:03:19;;;;;;;8.50;3.05;;;10.60;71.40;;;;;;5000199;28;20062;-82
2022/02/20 14:05:46;;;;;;;;;;;10.60;71.60;;;;;;5001691;28;20074;-80
2022/02/20 14:08:16;;;;;;;20.17;7.57;;;10.50;70.70;;;;;;5001075;28;19910;-82
2022/02/20 14:10:59;;;;;;;19.92;7.95;;;10.40;70.60;;;;;;5000801;28;20023;-82
2022/02/20 14:13:32;;;;;;;11.65;4.10;;;10.30;72.30;;;;;;5000577;28;20026;-81
2022/02/20 14:15:59;;;;;;;37.03;15.95;;;10.20;73.10;;;;;;5001443;28;20011;-81
2022/02/20 14:18:26;;;;;;;9.93;4.10;;;10.10;74.60;;;;;;5001181;28;20022;-82
2022/02/20 14:20:54;;;;;;;15.10;7.75;;;10.00;74.10;;;;;;5001260;28;20030;-81
2022/02/20 14:23:26;;;;;;;14.50;6.50;;;10.00;74.50;;;;;;5001182;28;20023;-80
2022/02/20 14:25:59;;;;;;;9.05;4.28;;;10.00;75.10;;;;;;5000660;28;20095;-81
2022/02/20 14:28:28;;;;;;;7.22;2.50;;;10.00;74.80;;;;;;5001296;28;20010;-81
2022/02/20 14:31:07;;;;;;;4.80;2.15;;;10.00;74.20;;;;;;5000970;28;20086;-82
2022/02/20 14:33:38;;;;;;;5.38;1.40;;;10.00;73.00;;;;;;5000544;28;20015;-82
2022/02/20 14:36:05;;;;;;;6.22;1.55;;;10.00;73.10;;;;;;5000865;28;20027;-80
2022/02/20 14:38:41;;;;;;;5.68;2.03;;;10.00;73.60;;;;;;5001016;28;20046;-81
2022/02/20 14:41:11;;;;;;;2.80;1.33;;;9.90;74.00;;;;;;5000610;28;20029;-80